createdAt,value
2023-01-12T00:01:09.371Z,153.41992
2023-01-12T00:16:11.785Z,59.92966
2023-01-12T00:31:14.293Z,9.58875
2023-01-12T00:46:18.248Z,1.19859
2023-01-12T01:01:20.760Z,0
2023-01-12T01:16:23.212Z,0
2023-01-12T01:31:26.145Z,0
2023-01-12T01:46:28.673Z,0
2023-01-12T02:01:31.115Z,0
2023-01-12T02:16:33.564Z,0
2023-01-12T02:31:35.959Z,0
2023-01-12T02:46:38.604Z,0
2023-01-12T03:01:41.128Z,0
2023-01-12T03:16:43.466Z,0
2023-01-12T03:31:45.885Z,0
2023-01-12T03:46:48.361Z,0
2023-01-12T04:01:50.629Z,0
2023-01-12T04:16:53.039Z,0
2023-01-12T04:31:55.834Z,0
2023-01-12T04:46:58.153Z,0
2023-01-12T05:02:01.080Z,0
2023-01-12T05:17:03.521Z,0
2023-01-12T05:32:05.863Z,0
2023-01-12T05:47:08.290Z,0
2023-01-12T06:02:10.598Z,0
2023-01-12T06:17:12.911Z,0
2023-01-12T06:32:15.197Z,0
2023-01-12T06:47:17.546Z,0
2023-01-12T07:02:19.951Z,0
2023-01-12T07:17:22.304Z,0
2023-01-12T07:32:24.586Z,0
2023-01-12T07:47:26.928Z,0
2023-01-12T08:02:29.237Z,0
2023-01-12T08:17:31.659Z,0
2023-01-12T08:32:34.021Z,0
2023-01-12T08:47:36.367Z,0
2023-01-12T09:02:38.693Z,0
2023-01-12T09:17:41.036Z,0
2023-01-12T09:32:43.389Z,0
2023-01-12T09:47:45.759Z,0
2023-01-12T10:02:48.153Z,0
2023-01-12T10:17:51.672Z,0
2023-01-12T10:32:54.454Z,0
2023-01-12T10:47:56.786Z,0
2023-01-12T11:02:59.263Z,0
2023-01-12T11:18:01.797Z,0
2023-01-12T11:33:04.087Z,0
2023-01-12T11:48:06.389Z,0
2023-01-12T12:03:08.716Z,0
2023-01-12T12:18:11.172Z,0
2023-01-12T12:33:13.539Z,0
2023-01-12T12:48:17.363Z,0
2023-01-12T13:03:19.689Z,0
2023-01-12T13:18:22.102Z,0
2023-01-12T13:33:24.609Z,0
2023-01-12T13:48:27.179Z,0
2023-01-12T14:03:29.654Z,0
2023-01-12T14:18:32.041Z,0
2023-01-12T14:33:34.361Z,0
2023-01-12T14:48:36.679Z,0
2023-01-12T15:03:43.672Z,0
2023-01-12T15:18:46.648Z,3.59578
2023-01-12T15:33:48.965Z,33.56061
2023-01-12T15:48:51.319Z,94.68886
2023-01-12T16:04:24.958Z,231.32848
2023-01-12T16:19:42.590Z,333.20889
2023-01-12T16:34:44.926Z,553.75006
2023-01-12T16:49:47.330Z,993.63373
2023-01-12T17:04:49.710Z,1591.73169
2023-01-12T17:19:52.162Z,1773.91785
2023-01-12T17:34:55.040Z,2062.77881
2023-01-12T17:49:57.151Z,2028.01965
2023-01-12T18:04:59.601Z,1930.93359
2023-01-12T18:20:01.876Z,1696.00928
2023-01-12T18:35:04.171Z,2035.21118
2023-01-12T18:50:06.831Z,1522.21326
2023-01-12T19:05:09.239Z,1799.08826
2023-01-12T19:20:11.578Z,1882.98987
2023-01-12T19:35:13.892Z,2037.6084
2023-01-12T19:50:16.542Z,1861.41516
2023-01-12T20:05:19.001Z,1819.46436
2023-01-12T20:20:21.346Z,2002.84912
2023-01-12T20:35:23.700Z,2568.58521
2023-01-12T20:50:26.099Z,2119.11279
2023-01-12T21:05:28.645Z,1977.67871
2023-01-12T21:20:30.967Z,2431.94556
2023-01-12T21:35:33.349Z,2019.62939
2023-01-12T21:50:35.628Z,1558.17114
2023-01-12T22:05:38.060Z,1383.17651
2023-01-12T22:20:40.648Z,1336.4314
2023-01-12T22:35:43.102Z,1037.98169
2023-01-12T22:50:45.447Z,938.49841
2023-01-12T23:05:47.878Z,920.51953
2023-01-12T23:20:50.217Z,611.28253
2023-01-12T23:35:52.528Z,379.95404
2023-01-12T23:50:54.994Z,200.16505
